createdAt,value
2019-01-29T00:01:14.549Z,99152.27
2019-01-29T00:03:21.428Z,99150.56
2019-01-29T00:05:27.768Z,99153.19
2019-01-29T00:07:34.169Z,99154.97
2019-01-29T00:09:40.669Z,99160.56
2019-01-29T00:11:47.188Z,99161.45
2019-01-29T00:13:53.488Z,99157.16
2019-01-29T00:16:00.370Z,99153.72
2019-01-29T00:18:06.668Z,99162.75
2019-01-29T00:20:13.276Z,99157.20
2019-01-29T00:22:20.339Z,99168.77
2019-01-29T00:24:29.488Z,99164.91
2019-01-29T00:26:36.468Z,99164.00
2019-01-29T00:28:42.996Z,99170.01
2019-01-29T00:30:49.448Z,99175.12
2019-01-29T00:32:56.211Z,99178.61
2019-01-29T00:35:02.476Z,99172.97
2019-01-29T00:37:08.671Z,99171.68
2019-01-29T00:39:15.011Z,99172.97
2019-01-29T00:41:21.549Z,99173.41
2019-01-29T00:43:28.277Z,99171.68
2019-01-29T00:45:34.569Z,99175.98
2019-01-29T00:47:41.368Z,99178.95
2019-01-29T00:49:49.168Z,99181.97
2019-01-29T00:51:56.471Z,99189.27
2019-01-29T00:54:03.430Z,99182.88
2019-01-29T00:56:09.949Z,99188.47
2019-01-29T00:58:16.489Z,99187.22
2019-01-29T01:00:24.928Z,99190.70
2019-01-29T01:02:31.129Z,99187.74
2019-01-29T01:04:38.248Z,99183.50
2019-01-29T01:06:44.728Z,99199.45
2019-01-29T01:08:53.469Z,99191.77
2019-01-29T01:10:59.709Z,99194.82
2019-01-29T01:13:08.028Z,99194.01
2019-01-29T01:15:15.334Z,99199.21
2019-01-29T01:17:22.208Z,99200.16
2019-01-29T01:19:29.008Z,99204.97
2019-01-29T01:21:35.388Z,99202.87
2019-01-29T01:23:41.831Z,99201.63
2019-01-29T01:25:48.756Z,99205.92
2019-01-29T01:27:54.934Z,99205.02
2019-01-29T01:30:01.430Z,99199.00
2019-01-29T01:32:08.630Z,99207.09
2019-01-29T01:34:17.729Z,99192.42
2019-01-29T01:36:24.588Z,99200.11
2019-01-29T01:38:31.127Z,99195.30
2019-01-29T01:40:37.647Z,99194.38
2019-01-29T01:42:44.171Z,99201.13
2019-01-29T01:44:51.469Z,99200.22
2019-01-29T01:46:58.548Z,99197.54
2019-01-29T01:49:04.768Z,99194.05
2019-01-29T01:51:11.170Z,99199.55
2019-01-29T01:53:17.448Z,99199.48
2019-01-29T01:55:23.808Z,99205.89
2019-01-29T01:57:30.616Z,99210.58
2019-01-29T01:59:36.708Z,99206.27
2019-01-29T02:01:42.928Z,99207.52
2019-01-29T02:03:52.728Z,99205.36
2019-01-29T02:06:01.109Z,99202.30
2019-01-29T02:08:13.889Z,99196.70
2019-01-29T02:10:30.148Z,99206.17
2019-01-29T02:12:37.208Z,99204.45
2019-01-29T02:14:43.708Z,99201.43
2019-01-29T02:16:51.628Z,99203.97
2019-01-29T02:19:11.369Z,99205.25
2019-01-29T02:21:18.571Z,99206.11
2019-01-29T02:23:25.788Z,99208.22
2019-01-29T02:25:31.871Z,99209.51
2019-01-29T02:27:38.229Z,99209.07
2019-01-29T02:29:45.568Z,99208.22
2019-01-29T02:31:52.768Z,99210.80
2019-01-29T02:33:59.828Z,99208.65
2019-01-29T02:36:06.289Z,99210.38
2019-01-29T02:38:13.311Z,99206.11
2019-01-29T02:40:22.828Z,99206.54
2019-01-29T02:42:35.109Z,99204.83
2019-01-29T02:44:42.908Z,99202.28
2019-01-29T02:46:54.828Z,99197.56
2019-01-29T02:49:17.999Z,99202.73
2019-01-29T02:51:32.908Z,99204.50
2019-01-29T02:53:40.328Z,99202.36
2019-01-29T02:55:46.468Z,99201.97
2019-01-29T02:57:52.694Z,99207.99
2019-01-29T02:59:59.368Z,99209.28
2019-01-29T03:02:07.409Z,99207.13
2019-01-29T03:07:39.368Z,99199.38
2019-01-29T03:09:46.248Z,99195.52
2019-01-29T03:11:52.547Z,99210.95
2019-01-29T03:14:02.748Z,99217.35
2019-01-29T03:16:09.129Z,99225.52
2019-01-29T03:18:15.527Z,99228.50
2019-01-29T03:20:21.908Z,99233.66
2019-01-29T03:22:28.231Z,99224.63
2019-01-29T03:24:34.669Z,99228.88
2019-01-29T03:26:41.167Z,99225.47
2019-01-29T03:28:47.610Z,99227.20
2019-01-29T03:30:53.889Z,99228.92
2019-01-29T03:33:00.070Z,99233.18
2019-01-29T03:35:08.827Z,99233.18
2019-01-29T03:37:15.908Z,99231.87
2019-01-29T03:39:23.989Z,99234.85
2019-01-29T03:41:31.388Z,99234.85
2019-01-29T03:43:38.528Z,99230.98
2019-01-29T03:45:54.789Z,99230.16
2019-01-29T03:48:05.888Z,99232.70
2019-01-29T03:50:18.410Z,99234.42
2019-01-29T03:52:25.713Z,99240.86
2019-01-29T03:54:32.169Z,99232.22
2019-01-29T03:56:38.470Z,99233.52
2019-01-29T03:58:45.289Z,99246.84
2019-01-29T04:00:52.047Z,99245.55
2019-01-29T04:02:58.667Z,99244.69
2019-01-29T04:05:06.149Z,99243.41
2019-01-29T04:07:12.555Z,99240.83
2019-01-29T04:09:18.948Z,99252.88
2019-01-29T04:11:26.588Z,99249.86
2019-01-29T04:13:33.189Z,99243.83
2019-01-29T04:15:40.271Z,99251.53
2019-01-29T04:17:47.208Z,99246.36
2019-01-29T04:19:53.609Z,99251.95
2019-01-29T04:22:00.001Z,99254.50
2019-01-29T04:24:08.308Z,99250.17
2019-01-29T04:26:22.028Z,99249.28
2019-01-29T04:28:33.908Z,99252.70
2019-01-29T04:30:46.910Z,99252.23
2019-01-29T04:32:53.069Z,99256.11
2019-01-29T04:35:01.769Z,99252.66
2019-01-29T04:37:08.888Z,99260.36
2019-01-29T04:39:15.248Z,99259.93
2019-01-29T04:41:21.610Z,99259.92
2019-01-29T04:43:29.328Z,99253.90
2019-01-29T04:45:35.539Z,99261.21
2019-01-29T04:47:42.054Z,99255.20
2019-01-29T04:49:48.651Z,99250.45
2019-01-29T04:51:56.208Z,99251.79
2019-01-29T04:54:02.407Z,99258.20
2019-01-29T04:56:09.228Z,99260.78
2019-01-29T04:58:15.273Z,99263.75
2019-01-29T05:00:26.842Z,99269.78
2019-01-29T05:02:33.169Z,99268.48
2019-01-29T05:04:41.210Z,99266.77
2019-01-29T05:06:49.748Z,99265.89
2019-01-29T05:08:56.408Z,99265.47
2019-01-29T05:11:03.848Z,99269.39
2019-01-29T05:13:10.269Z,99275.42
2019-01-29T05:15:19.439Z,99272.80
2019-01-29T05:17:26.948Z,99271.50
2019-01-29T05:19:34.407Z,99275.38
2019-01-29T05:21:41.948Z,99270.20
2019-01-29T05:23:49.899Z,99272.36
2019-01-29T05:25:56.368Z,99274.95
2019-01-29T05:28:03.088Z,99282.69
2019-01-29T05:30:16.889Z,99279.19
2019-01-29T05:32:25.399Z,99279.19
2019-01-29T05:34:32.154Z,99282.25
2019-01-29T05:36:38.468Z,99291.69
2019-01-29T05:38:45.149Z,99293.41
2019-01-29T05:40:53.320Z,99284.37
2019-01-29T05:43:00.428Z,99291.25
2019-01-29T05:45:12.618Z,99289.09
2019-01-29T05:47:20.171Z,99289.48
2019-01-29T05:49:26.636Z,99289.09
2019-01-29T05:51:33.393Z,99290.34
2019-01-29T05:53:39.768Z,99289.48
2019-01-29T05:55:46.250Z,99291.63
2019-01-29T05:57:52.750Z,99290.76
2019-01-29T05:59:59.088Z,99298.84
2019-01-29T06:02:05.771Z,99296.74
2019-01-29T06:04:12.268Z,99297.16
2019-01-29T06:06:20.156Z,99294.11
2019-01-29T06:10:57.868Z,99302.23
2019-01-29T06:13:07.349Z,99307.36
2019-01-29T06:15:25.548Z,99303.91
2019-01-29T06:17:32.071Z,99310.84
2019-01-29T06:19:43.931Z,99315.49
2019-01-29T06:21:56.532Z,99309.45
2019-01-29T06:24:02.929Z,99309.45
2019-01-29T06:26:09.468Z,99315.47
2019-01-29T06:28:18.828Z,99315.47
2019-01-29T06:30:26.808Z,99315.86
2019-01-29T06:32:34.129Z,99318.48
2019-01-29T06:34:41.907Z,99321.93
2019-01-29T06:36:50.924Z,99324.95
2019-01-29T06:39:00.208Z,99330.51
2019-01-29T06:41:06.730Z,99330.08
2019-01-29T06:43:12.950Z,99333.94
2019-01-29T06:45:23.429Z,99333.09
2019-01-29T06:47:30.849Z,99339.55
2019-01-29T06:49:40.388Z,99336.11
2019-01-29T06:51:48.490Z,99346.02
2019-01-29T06:53:55.309Z,99341.31
2019-01-29T06:56:09.767Z,99348.20
2019-01-29T06:58:20.654Z,99346.02
2019-01-29T07:00:31.990Z,99349.45
2019-01-29T07:02:38.069Z,99353.34
2019-01-29T07:04:44.640Z,99354.63
2019-01-29T07:06:51.029Z,99361.09
2019-01-29T07:08:58.168Z,99363.72
2019-01-29T07:11:04.488Z,99366.25
2019-01-29T07:13:11.328Z,99367.06
2019-01-29T07:15:45.288Z,99369.65
2019-01-29T07:17:51.628Z,99374.77
2019-01-29T07:19:57.929Z,99374.81
2019-01-29T07:22:05.188Z,99381.71
2019-01-29T07:24:12.331Z,99387.73
2019-01-29T07:26:19.395Z,99384.46
2019-01-29T07:28:27.330Z,99389.20
2019-01-29T07:30:36.946Z,99391.35
2019-01-29T07:32:43.392Z,99400.45
2019-01-29T07:34:50.306Z,99402.99
2019-01-29T07:36:56.608Z,99404.93
2019-01-29T07:39:04.871Z,99404.98
2019-01-29T07:41:11.428Z,99408.33
2019-01-29T07:43:17.748Z,99414.66
2019-01-29T07:45:25.192Z,99415.41
2019-01-29T07:47:32.369Z,99413.14
2019-01-29T07:49:38.868Z,99419.80
2019-01-29T07:51:46.408Z,99422.20
2019-01-29T07:53:52.748Z,99425.96
2019-01-29T07:55:59.048Z,99420.17
2019-01-29T07:58:07.070Z,99415.93
2019-01-29T08:00:18.429Z,99419.98
2019-01-29T08:02:25.688Z,99418.74
2019-01-29T08:04:31.984Z,99421.33
2019-01-29T08:06:41.689Z,99424.25
2019-01-29T08:08:49.332Z,99432.80
2019-01-29T08:10:55.568Z,99434.41
2019-01-29T08:13:01.809Z,99435.59
2019-01-29T08:15:12.430Z,99437.17
2019-01-29T08:17:19.369Z,99437.45
2019-01-29T08:19:27.468Z,99442.75
2019-01-29T08:21:33.749Z,99440.68
2019-01-29T08:23:40.091Z,99443.42
2019-01-29T08:25:47.801Z,99448.64
2019-01-29T08:27:58.449Z,99454.39
2019-01-29T08:30:06.308Z,99454.15
2019-01-29T08:32:12.909Z,99457.45
2019-01-29T08:34:19.204Z,99456.71
2019-01-29T08:36:25.508Z,99448.68
2019-01-29T08:38:31.889Z,99457.31
2019-01-29T08:40:38.248Z,99458.66
2019-01-29T08:42:44.568Z,99463.82
2019-01-29T08:44:50.669Z,99469.34
2019-01-29T08:46:56.989Z,99473.53
2019-01-29T08:49:03.250Z,99474.44
2019-01-29T08:51:09.649Z,99476.98
2019-01-29T08:53:17.108Z,99475.67
2019-01-29T08:55:23.529Z,99483.81
2019-01-29T08:57:30.088Z,99484.74
2019-01-29T08:59:36.409Z,99489.05
2019-01-29T09:01:44.249Z,99491.20
2019-01-29T09:03:50.548Z,99491.59
2019-01-29T09:05:57.388Z,99498.97
2019-01-29T09:08:04.148Z,99493.75
2019-01-29T09:10:17.088Z,99497.62
2019-01-29T09:12:23.468Z,99505.70
2019-01-29T09:14:30.012Z,99506.52
2019-01-29T09:16:36.189Z,99506.09
2019-01-29T09:18:42.688Z,99521.23
2019-01-29T09:20:49.292Z,99523.39
2019-01-29T09:22:57.430Z,99525.56
2019-01-29T09:25:04.193Z,99531.22
2019-01-29T09:27:10.489Z,99536.94
2019-01-29T09:29:17.862Z,99541.25
2019-01-29T09:31:24.508Z,99543.55
2019-01-29T09:33:31.591Z,99547.00
2019-01-29T09:35:37.889Z,99541.36
2019-01-29T09:37:44.496Z,99544.80
2019-01-29T09:39:51.369Z,99545.67
2019-01-29T09:41:58.008Z,99540.87
2019-01-29T09:44:04.530Z,99547.28
2019-01-29T09:46:10.848Z,99546.36
2019-01-29T09:48:18.168Z,99549.77
2019-01-29T09:50:29.429Z,99550.63
2019-01-29T09:52:36.049Z,99550.19
2019-01-29T09:54:42.807Z,99553.11
2019-01-29T09:56:49.759Z,99555.27
2019-01-29T09:58:56.308Z,99553.92
2019-01-29T10:01:02.728Z,99556.92
2019-01-29T10:03:09.049Z,99557.68
2019-01-29T10:05:15.868Z,99562.86
2019-01-29T10:07:23.468Z,99567.19
2019-01-29T10:09:29.675Z,99566.33
2019-01-29T10:11:35.873Z,99564.16
2019-01-29T10:13:42.049Z,99567.14
2019-01-29T10:15:48.368Z,99564.87
2019-01-29T10:17:54.988Z,99572.20
2019-01-29T10:20:02.783Z,99570.91
2019-01-29T10:22:10.788Z,99573.16
2019-01-29T10:24:17.248Z,99579.64
2019-01-29T10:26:23.869Z,99580.93
2019-01-29T10:28:30.255Z,99572.84
2019-01-29T10:30:38.988Z,99582.77
2019-01-29T10:32:45.268Z,99582.02
2019-01-29T10:34:51.690Z,99582.50
2019-01-29T10:36:58.428Z,99583.47
2019-01-29T10:39:07.088Z,99586.53
2019-01-29T10:41:13.388Z,99589.08
2019-01-29T10:43:19.812Z,99593.48
2019-01-29T10:45:28.849Z,99588.64
2019-01-29T10:47:36.069Z,99594.58
2019-01-29T10:49:42.449Z,99590.69
2019-01-29T10:51:49.250Z,99587.72
2019-01-29T10:53:55.934Z,99594.20
2019-01-29T10:56:03.714Z,99592.04
2019-01-29T10:58:11.830Z,99586.42
2019-01-29T11:00:26.434Z,99586.44
2019-01-29T11:02:32.970Z,99600.24
2019-01-29T11:04:39.275Z,99595.55
2019-01-29T11:06:45.710Z,99597.75
2019-01-29T11:08:52.933Z,99598.56
2019-01-29T11:10:59.226Z,99603.26
2019-01-29T11:13:07.387Z,99606.18
2019-01-29T11:15:21.410Z,99603.11
2019-01-29T11:17:28.012Z,99600.52
2019-01-29T11:19:34.564Z,99603.06
2019-01-29T11:21:41.453Z,99603.06
2019-01-29T11:23:49.111Z,99608.23
2019-01-29T11:25:56.245Z,99607.84
2019-01-29T11:28:03.533Z,99619.92
2019-01-29T11:30:14.837Z,99613.41
2019-01-29T11:32:21.352Z,99614.22
2019-01-29T11:34:27.951Z,99621.11
2019-01-29T11:36:35.110Z,99623.77
2019-01-29T11:38:41.991Z,99629.76
2019-01-29T11:40:48.770Z,99628.95
2019-01-29T11:42:55.050Z,99634.17
2019-01-29T11:45:02.211Z,99640.30
2019-01-29T11:47:08.498Z,99636.85
2019-01-29T11:49:15.330Z,99641.13
2019-01-29T11:51:22.151Z,99638.06
2019-01-29T11:53:28.453Z,99643.19
2019-01-29T11:55:34.471Z,99648.74
2019-01-29T11:57:41.031Z,99651.33
2019-01-29T11:59:47.269Z,99656.94
2019-01-29T12:01:53.708Z,99657.75
2019-01-29T12:04:00.168Z,99665.52
2019-01-29T12:06:06.489Z,99671.61
2019-01-29T12:08:13.008Z,99677.26
2019-01-29T12:10:20.068Z,99673.43
2019-01-29T12:12:27.591Z,99677.78
2019-01-29T12:14:34.050Z,99681.67
2019-01-29T12:16:40.150Z,99675.59
2019-01-29T12:18:46.385Z,99691.55
2019-01-29T12:20:56.090Z,99685.95
2019-01-29T12:23:02.861Z,99690.78
2019-01-29T12:25:09.117Z,99694.66
2019-01-29T12:27:15.653Z,99698.98
2019-01-29T12:29:25.296Z,99696.01
2019-01-29T12:31:31.950Z,99702.04
2019-01-29T12:33:38.750Z,99710.19
2019-01-29T12:35:45.091Z,99702.34
2019-01-29T12:37:51.777Z,99706.51
2019-01-29T12:39:57.982Z,99705.61
2019-01-29T12:42:04.441Z,99707.75
2019-01-29T12:44:12.033Z,99714.19
2019-01-29T12:46:18.476Z,99719.80
2019-01-29T12:48:25.115Z,99715.05
2019-01-29T12:50:33.390Z,99718.94
2019-01-29T12:52:42.111Z,99718.11
2019-01-29T12:54:50.370Z,99714.66
2019-01-29T12:56:57.548Z,99716.38
2019-01-29T12:59:03.785Z,99724.92
2019-01-29T13:01:18.608Z,99722.67
2019-01-29T13:03:25.568Z,99727.91
2019-01-29T13:05:32.780Z,99735.23
2019-01-29T13:07:39.408Z,99738.22
2019-01-29T13:09:45.836Z,99737.78
2019-01-29T13:11:53.668Z,99741.23
2019-01-29T13:14:00.169Z,99734.37
2019-01-29T13:16:08.609Z,99743.06
2019-01-29T13:18:15.932Z,99746.17
2019-01-29T13:20:22.233Z,99753.08
2019-01-29T13:22:28.628Z,99754.88
2019-01-29T13:24:35.228Z,99756.66
2019-01-29T13:26:43.408Z,99759.38
2019-01-29T13:28:49.908Z,99762.01
2019-01-29T13:30:56.590Z,99769.78
2019-01-29T13:33:02.790Z,99767.23
2019-01-29T13:35:11.473Z,99767.70
2019-01-29T13:37:18.052Z,99772.05
2019-01-29T13:39:24.469Z,99769.00
2019-01-29T13:41:30.955Z,99778.09
2019-01-29T13:43:37.309Z,99777.70
2019-01-29T13:45:43.969Z,99783.73
2019-01-29T13:47:50.559Z,99782.05
2019-01-29T13:49:56.855Z,99789.03
2019-01-29T13:52:04.148Z,99798.52
2019-01-29T13:54:11.689Z,99800.70
2019-01-29T13:56:20.332Z,99805.02
2019-01-29T13:58:28.704Z,99807.64
2019-01-29T14:00:37.438Z,99813.68
2019-01-29T14:02:43.570Z,99813.25
2019-01-29T14:04:51.811Z,99818.03
2019-01-29T14:06:59.651Z,99818.92
2019-01-29T14:09:08.871Z,99814.65
2019-01-29T14:11:15.274Z,99822.44
2019-01-29T14:13:21.871Z,99821.18
2019-01-29T14:15:31.794Z,99828.08
2019-01-29T14:17:38.491Z,99830.23
2019-01-29T14:19:45.409Z,99841.44
2019-01-29T14:21:51.648Z,99838.45
2019-01-29T14:23:57.928Z,99847.08
2019-01-29T14:26:04.313Z,99846.25
2019-01-29T14:28:14.693Z,99847.11
2019-01-29T14:30:31.488Z,99853.17
2019-01-29T14:32:39.472Z,99848.86
2019-01-29T14:34:46.031Z,99852.70
2019-01-29T14:36:52.112Z,99855.77
2019-01-29T14:39:21.610Z,99856.16
2019-01-29T14:41:28.291Z,99855.30
2019-01-29T14:43:39.199Z,99863.45
2019-01-29T14:45:45.776Z,99860.88
2019-01-29T14:47:52.936Z,99863.45
2019-01-29T14:49:59.491Z,99866.50
2019-01-29T14:52:06.349Z,99871.64
2019-01-29T14:54:13.437Z,99871.25
2019-01-29T14:56:20.929Z,99875.59
2019-01-29T14:58:27.288Z,99877.77
2019-01-29T15:00:37.638Z,99887.25
2019-01-29T15:02:44.671Z,99888.11
2019-01-29T15:04:51.859Z,99889.41
2019-01-29T15:06:59.557Z,99892.48
2019-01-29T15:09:08.631Z,99898.08
2019-01-29T15:11:17.340Z,99901.09
2019-01-29T15:13:23.794Z,99907.13
2019-01-29T15:15:35.061Z,99907.59
2019-01-29T15:17:43.701Z,99909.31
2019-01-29T15:19:50.474Z,99905.89
2019-01-29T15:21:56.668Z,99910.19
2019-01-29T15:24:05.188Z,99916.22
2019-01-29T15:26:12.069Z,99917.55
2019-01-29T15:28:18.810Z,99915.82
2019-01-29T15:30:30.529Z,99923.17
2019-01-29T15:32:37.117Z,99930.49
2019-01-29T15:34:44.549Z,99927.50
2019-01-29T15:36:50.908Z,99933.53
2019-01-29T15:38:57.328Z,99939.98
2019-01-29T15:41:04.368Z,99940.44
2019-01-29T15:43:10.708Z,99947.36
2019-01-29T15:45:26.310Z,99940.06
2019-01-29T15:47:32.989Z,99949.53
2019-01-29T15:49:39.684Z,99948.27
2019-01-29T15:51:46.388Z,99955.61
2019-01-29T15:53:52.668Z,99957.35
2019-01-29T15:56:00.269Z,99948.73
2019-01-29T15:58:07.268Z,99955.63
2019-01-29T16:00:35.808Z,99959.95
2019-01-29T16:02:42.910Z,99952.63
2019-01-29T16:04:50.009Z,99961.67
2019-01-29T16:06:56.124Z,99961.67
2019-01-29T16:09:02.600Z,99962.98
2019-01-29T16:11:11.072Z,99971.16
2019-01-29T16:13:18.128Z,99970.76
2019-01-29T16:15:26.488Z,99969.89
2019-01-29T16:17:32.877Z,99979.80
2019-01-29T16:19:39.194Z,99979.80
2019-01-29T16:21:45.910Z,99983.26
2019-01-29T16:23:52.438Z,99987.13
2019-01-29T16:25:59.069Z,99989.28
2019-01-29T16:28:06.548Z,99986.27
2019-01-29T16:30:31.545Z,99987.56
2019-01-29T16:32:38.368Z,99984.55
2019-01-29T16:34:45.468Z,99994.45
2019-01-29T16:36:52.927Z,100002.22
2019-01-29T16:38:59.548Z,100001.35
2019-01-29T16:41:06.129Z,100004.83
2019-01-29T16:43:12.629Z,100003.95
2019-01-29T16:45:26.408Z,100000.93
2019-01-29T16:47:35.042Z,100004.80
2019-01-29T16:49:41.268Z,100011.27
2019-01-29T16:51:47.777Z,100011.28
2019-01-29T16:53:54.448Z,100021.62
2019-01-29T16:56:02.612Z,100022.47
2019-01-29T16:58:09.511Z,100031.11
2019-01-29T17:00:32.409Z,100026.81
2019-01-29T17:02:38.968Z,100027.67
2019-01-29T17:04:45.409Z,100026.42
2019-01-29T17:06:51.887Z,100029.02
2019-01-29T17:08:58.510Z,100033.33
2019-01-29T17:11:05.888Z,100036.38
2019-01-29T17:13:12.648Z,100044.99
2019-01-29T17:15:31.588Z,100049.72
2019-01-29T17:17:37.978Z,100056.60
2019-01-29T17:19:44.769Z,100057.04
2019-01-29T17:21:51.711Z,100059.60
2019-01-29T17:23:58.278Z,100063.03
2019-01-29T17:26:04.618Z,100066.03
2019-01-29T17:28:10.989Z,100064.73
2019-01-29T17:30:45.240Z,100064.31
2019-01-29T17:32:51.908Z,100063.87
2019-01-29T17:34:58.540Z,100070.28
2019-01-29T17:37:05.135Z,100072.38
2019-01-29T17:39:11.668Z,100077.09
2019-01-29T17:41:19.589Z,100075.38
2019-01-29T17:43:25.988Z,100074.50
2019-01-29T17:45:43.188Z,100078.34
2019-01-29T17:47:51.289Z,100080.50
2019-01-29T17:49:59.038Z,100086.05
2019-01-29T17:52:05.592Z,100086.47
2019-01-29T17:54:13.615Z,100086.47
2019-01-29T17:56:20.448Z,100095.88
2019-01-29T17:58:27.450Z,100094.11
2019-01-29T18:00:35.729Z,100092.80
2019-01-29T18:02:42.855Z,100097.91
2019-01-29T18:04:52.253Z,100097.44
2019-01-29T18:07:00.793Z,100094.83
2019-01-29T18:09:09.675Z,100101.67
2019-01-29T18:11:16.568Z,100101.68
2019-01-29T18:13:23.468Z,100098.22
2019-01-29T18:15:33.438Z,100098.22
2019-01-29T18:17:40.188Z,100098.64
2019-01-29T18:19:47.136Z,100095.64
2019-01-29T18:21:56.939Z,100099.50
2019-01-29T18:24:03.336Z,100094.80
2019-01-29T18:26:10.436Z,100099.11
2019-01-29T18:30:46.581Z,100100.38
2019-01-29T18:32:53.358Z,100102.52
2019-01-29T18:35:00.549Z,100106.38
2019-01-29T18:37:07.255Z,100107.72
2019-01-29T18:39:14.146Z,100103.87
2019-01-29T18:41:20.948Z,100106.91
2019-01-29T18:43:27.867Z,100106.97
2019-01-29T18:45:35.988Z,100115.20
2019-01-29T18:47:42.728Z,100113.98
2019-01-29T18:49:51.072Z,100114.02
2019-01-29T18:51:58.009Z,100109.34
2019-01-29T18:54:05.429Z,100115.80
2019-01-29T18:56:12.608Z,100114.55
2019-01-29T18:58:21.009Z,100111.11
2019-01-29T19:00:27.938Z,100119.72
2019-01-29T19:02:35.888Z,100116.30
2019-01-29T19:04:42.609Z,100118.05
2019-01-29T19:06:50.557Z,100114.62
2019-01-29T19:08:57.353Z,100118.48
2019-01-29T19:11:04.415Z,100116.33
2019-01-29T19:13:11.269Z,100119.31
2019-01-29T19:15:23.330Z,100123.62
2019-01-29T19:17:30.242Z,100121.06
2019-01-29T19:19:36.930Z,100127.48
2019-01-29T19:21:44.169Z,100127.06
2019-01-29T19:23:51.128Z,100123.20
2019-01-29T19:25:57.935Z,100136.09
2019-01-29T19:28:04.729Z,100132.23
2019-01-29T19:30:23.041Z,100135.69
2019-01-29T19:32:31.388Z,100131.82
2019-01-29T19:34:38.448Z,100138.27
2019-01-29T19:36:45.074Z,100141.72
2019-01-29T19:38:51.969Z,100140.45
2019-01-29T19:40:58.789Z,100144.73
2019-01-29T19:43:06.768Z,100142.61
2019-01-29T19:45:26.475Z,100138.30
2019-01-29T19:47:33.343Z,100140.02
2019-01-29T19:49:40.128Z,100147.34
2019-01-29T19:51:49.629Z,100145.61
2019-01-29T19:53:56.041Z,100146.91
2019-01-29T19:56:02.971Z,100144.35
2019-01-29T19:58:10.039Z,100141.75
2019-01-29T20:00:21.409Z,100140.89
2019-01-29T20:02:28.248Z,100149.52
2019-01-29T20:04:35.000Z,100149.50
2019-01-29T20:06:41.308Z,100151.64
2019-01-29T20:08:48.108Z,100159.82
2019-01-29T20:10:55.068Z,100151.22
2019-01-29T20:13:01.868Z,100154.66
2019-01-29T20:15:12.648Z,100156.80
2019-01-29T20:17:19.608Z,100160.27
2019-01-29T20:19:26.090Z,100161.98
2019-01-29T20:21:33.129Z,100161.55
2019-01-29T20:23:41.328Z,100156.81
2019-01-29T20:25:49.089Z,100165.43
2019-01-29T20:27:55.673Z,100161.98
2019-01-29T20:30:02.757Z,100163.72
2019-01-29T20:32:09.188Z,100162.84
2019-01-29T20:34:16.669Z,100163.27
2019-01-29T20:36:23.494Z,100158.99
2019-01-29T20:38:35.187Z,100164.16
2019-01-29T20:40:39.055Z,100163.30
2019-01-29T20:42:46.336Z,100168.03
2019-01-29T20:44:53.168Z,100165.87
2019-01-29T20:46:59.866Z,100163.29
2019-01-29T20:49:06.528Z,100167.59
2019-01-29T20:51:13.388Z,100167.14
2019-01-29T20:53:20.229Z,100161.13
2019-01-29T20:55:27.156Z,100161.13
2019-01-29T20:57:34.089Z,100165.00
2019-01-29T20:59:41.172Z,100170.17
2019-01-29T21:01:48.948Z,100175.77
2019-01-29T21:03:55.769Z,100170.17
2019-01-29T21:06:03.529Z,100166.30
2019-01-29T21:08:10.471Z,100164.14
2019-01-29T21:10:26.271Z,100164.98
2019-01-29T21:12:34.397Z,100159.83
2019-01-29T21:14:41.890Z,100161.98
2019-01-29T21:16:50.108Z,100164.58
2019-01-29T21:18:56.802Z,100169.73
2019-01-29T21:21:03.788Z,100165.45
2019-01-29T21:23:10.969Z,100165.45
2019-01-29T21:25:17.988Z,100168.03
2019-01-29T21:27:25.110Z,100166.72
2019-01-29T21:29:31.868Z,100162.86
2019-01-29T21:31:40.401Z,100160.69
2019-01-29T21:33:47.048Z,100163.70
2019-01-29T21:35:53.728Z,100164.56
2019-01-29T21:38:00.356Z,100160.25
2019-01-29T21:40:13.397Z,100167.99
2019-01-29T21:42:22.090Z,100163.27
2019-01-29T21:44:28.649Z,100160.70
2019-01-29T21:46:35.072Z,100157.69
2019-01-29T21:48:41.950Z,100163.29
2019-01-29T21:50:48.809Z,100164.58
2019-01-29T21:52:55.576Z,100161.12
2019-01-29T21:55:02.909Z,100159.40
2019-01-29T21:57:10.029Z,100161.55
2019-01-29T21:59:16.388Z,100158.09
2019-01-29T22:01:23.068Z,100154.22
2019-01-29T22:03:29.288Z,100158.97
2019-01-29T22:05:36.767Z,100165.39
2019-01-29T22:07:43.268Z,100159.81
2019-01-29T22:09:49.548Z,100169.70
2019-01-29T22:11:56.189Z,100171.41
2019-01-29T22:14:12.328Z,100166.68
2019-01-29T22:16:19.429Z,100172.69
2019-01-29T22:18:25.868Z,100168.83
2019-01-29T22:20:33.431Z,100167.55
2019-01-29T22:22:42.108Z,100164.54
2019-01-29T22:24:48.368Z,100161.52
2019-01-29T22:26:55.689Z,100162.37
2019-01-29T22:29:02.048Z,100166.66
2019-01-29T22:31:08.308Z,100170.11
2019-01-29T22:33:16.109Z,100171.84
2019-01-29T22:35:22.389Z,100174.00
2019-01-29T22:37:28.768Z,100178.71
2019-01-29T22:39:35.708Z,100177.84
2019-01-29T22:41:42.068Z,100175.69
2019-01-29T22:43:50.268Z,100181.31
2019-01-29T22:45:56.648Z,100182.14
2019-01-29T22:48:04.662Z,100178.71
2019-01-29T22:50:16.088Z,100177.42
2019-01-29T22:52:22.668Z,100180.88
2019-01-29T22:54:28.908Z,100182.60
2019-01-29T22:56:35.730Z,100188.61
2019-01-29T22:58:43.728Z,100191.64
2019-01-29T23:01:09.528Z,100187.33
2019-01-29T23:03:17.728Z,100196.35
2019-01-29T23:05:25.213Z,100189.45
2019-01-29T23:07:32.848Z,100183.02
2019-01-29T23:09:40.148Z,100187.30
2019-01-29T23:11:47.311Z,100182.58
2019-01-29T23:13:53.808Z,100179.16
2019-01-29T23:16:00.310Z,100176.16
2019-01-29T23:18:07.688Z,100177.84
2019-01-29T23:20:17.149Z,100171.41
2019-01-29T23:22:23.930Z,100174.00
2019-01-29T23:24:31.988Z,100170.99
2019-01-29T23:26:38.308Z,100176.16
2019-01-29T23:28:44.588Z,100173.97
2019-01-29T23:30:50.968Z,100173.11
2019-01-29T23:32:57.289Z,100171.83
2019-01-29T23:35:05.749Z,100169.70
2019-01-29T23:37:12.228Z,100164.96
2019-01-29T23:39:20.090Z,100173.55
2019-01-29T23:41:29.361Z,100175.70
2019-01-29T23:43:35.789Z,100173.97
2019-01-29T23:45:42.151Z,100173.11
2019-01-29T23:47:49.910Z,100172.69
2019-01-29T23:49:57.089Z,100176.56
2019-01-29T23:52:04.249Z,100178.28
2019-01-29T23:54:10.672Z,100180.45
2019-01-29T23:56:17.329Z,100183.43
2019-01-29T23:58:24.668Z,100189.05
